Time;durP1;ratioP1;P1;durP2;ratioP2;P2;SDS_P1;SDS_P2;PMS_P1;PMS_P2;Temp;Humidity;BMP_temperature;BMP_pressure;BME280_temperature;BME280_humidity;BME280_pressure;Samples;Min_cycle;Max_cycle;Signal;HPM_P1;HPM_P2
2022/03/26 00:02:05;;;;;;;51.55;30.95;;;;;;;;;;5015692;28;100619;-71
2022/03/26 00:04:32;;;;;;;56.05;31.65;;;;;;;;;;5032072;28;100319;-72
2022/03/26 00:06:59;;;;;;;56.05;30.08;;;;;;;;;;5033971;28;100045;-72
2022/03/26 00:09:26;;;;;;;53.70;30.55;;;;;;;;;;5030288;28;100533;-72
2022/03/26 00:11:53;;;;;;;56.40;31.02;;;;;;;;;;5012056;28;100570;-72
2022/03/26 00:14:19;;;;;;;50.67;28.63;;;;;;;;;;4994472;28;100007;-72
2022/03/26 00:16:46;;;;;;;49.45;28.30;;;;;;;;;;4977961;28;100038;-72
2022/03/26 00:19:14;;;;;;;54.45;28.60;;;;;;;;;;5012944;28;100474;-72
2022/03/26 00:21:42;;;;;;;57.45;29.35;;;;;;;;;;5013400;28;100637;-72
2022/03/26 00:24:09;;;;;;;53.90;28.88;;;;;;;;;;4994487;28;99978;-72
2022/03/26 00:26:35;;;;;;;48.35;27.13;;;;;;;;;;5008162;28;100141;-71
2022/03/26 00:29:02;;;;;;;51.78;28.23;;;;;;;;;;4993241;28;100381;-71
2022/03/26 00:31:30;;;;;;;58.50;29.10;;;;;;;;;;4978388;28;101061;-71
2022/03/26 00:33:57;;;;;;;52.72;29.33;;;;;;;;;;5013241;28;101234;-71
2022/03/26 00:36:24;;;;;;;54.70;28.20;;;;;;;;;;5012775;28;100377;-72
2022/03/26 00:38:51;;;;;;;54.22;27.83;;;;;;;;;;4993930;28;100314;-73
2022/03/26 00:41:18;;;;;;;50.50;28.77;;;;;;;;;;4993169;28;101702;-72
2022/03/26 00:43:44;;;;;;;49.47;28.63;;;;;;;;;;4962433;28;100048;-72
2022/03/26 00:46:11;;;;;;;59.63;29.55;;;;;;;;;;5013511;28;100053;-72
2022/03/26 00:48:42;;;;;;;51.03;26.30;;;;;;;;;;5003397;28;100407;-72
2022/03/26 00:51:09;;;;;;;47.05;26.77;;;;;;;;;;5032341;28;100709;-72
2022/03/26 00:53:36;;;;;;;48.25;27.85;;;;;;;;;;4997900;28;100203;-73
2022/03/26 00:56:04;;;;;;;47.60;26.38;;;;;;;;;;5014926;28;100122;-72
2022/03/26 00:58:30;;;;;;;52.03;27.60;;;;;;;;;;5013640;28;100111;-71
2022/03/26 01:00:57;;;;;;;49.85;28.60;;;;;;;;;;4981563;28;100581;-72
2022/03/26 01:03:24;;;;;;;49.33;28.50;;;;;;;;;;5032207;28;100158;-72
2022/03/26 01:05:52;;;;;;;46.92;27.05;;;;;;;;;;5014761;28;100062;-72
2022/03/26 01:08:18;;;;;;;45.55;27.50;;;;;;;;;;5014729;28;100198;-72
2022/03/26 01:10:46;;;;;;;44.85;25.92;;;;;;;;;;5014741;28;100502;-72
2022/03/26 01:13:14;;;;;;;44.85;26.17;;;;;;;;;;5013896;28;100496;-72
2022/03/26 01:15:40;;;;;;;51.85;24.73;;;;;;;;;;5014153;28;100511;-72
2022/03/26 01:18:08;;;;;;;49.47;25.25;;;;;;;;;;4996745;28;101436;-72
2022/03/26 01:20:34;;;;;;;48.08;24.80;;;;;;;;;;5010215;28;100620;-72
2022/03/26 01:23:01;;;;;;;44.30;24.80;;;;;;;;;;5032555;28;99848;-72
2022/03/26 01:25:28;;;;;;;44.05;23.00;;;;;;;;;;5014000;28;99980;-72
2022/03/26 01:27:55;;;;;;;46.03;24.48;;;;;;;;;;4982099;28;100847;-71
2022/03/26 01:30:22;;;;;;;45.00;25.50;;;;;;;;;;4990984;28;100575;-71
2022/03/26 01:32:49;;;;;;;44.28;24.33;;;;;;;;;;4978383;28;100092;-72
2022/03/26 01:35:16;;;;;;;43.75;24.42;;;;;;;;;;4998059;28;100242;-72
2022/03/26 01:37:43;;;;;;;47.53;24.52;;;;;;;;;;5010542;28;100537;-72
2022/03/26 01:40:10;;;;;;;49.10;24.02;;;;;;;;;;5011867;28;100618;-72
2022/03/26 01:42:37;;;;;;;47.75;26.40;;;;;;;;;;5011649;28;100114;-72
2022/03/26 01:45:04;;;;;;;44.28;25.05;;;;;;;;;;4977178;28;100085;-72
2022/03/26 01:47:31;;;;;;;42.75;25.13;;;;;;;;;;4993983;28;104981;-73
2022/03/26 01:49:58;;;;;;;48.22;24.52;;;;;;;;;;4990570;28;100657;-73
2022/03/26 01:52:24;;;;;;;44.42;25.00;;;;;;;;;;4976562;28;100128;-73
2022/03/26 01:54:51;;;;;;;45.03;23.70;;;;;;;;;;5014382;28;100308;-74
2022/03/26 01:57:18;;;;;;;47.63;23.48;;;;;;;;;;5029918;28;103143;-73
2022/03/26 01:59:45;;;;;;;43.03;22.13;;;;;;;;;;4997455;28;100682;-73
2022/03/26 02:02:12;;;;;;;40.85;22.67;;;;;;;;;;4997867;28;100017;-73
2022/03/26 02:04:39;;;;;;;42.28;23.02;;;;;;;;;;4995422;28;103036;-72
2022/03/26 02:07:05;;;;;;;42.10;23.30;;;;;;;;;;4992789;28;100274;-73
2022/03/26 02:09:35;;;;;;;40.10;22.58;;;;;;;;;;5011667;28;100659;-72
2022/03/26 02:12:03;;;;;;;41.30;21.83;;;;;;;;;;5012029;28;100075;-72
2022/03/26 02:14:30;;;;;;;39.58;22.17;;;;;;;;;;4994442;28;100131;-72
2022/03/26 02:16:57;;;;;;;42.25;22.75;;;;;;;;;;5011123;28;100130;-73
2022/03/26 02:19:24;;;;;;;39.78;22.33;;;;;;;;;;5010156;28;100684;-73
2022/03/26 02:21:50;;;;;;;39.25;22.30;;;;;;;;;;5010693;28;100044;-72
2022/03/26 02:24:17;;;;;;;40.28;22.23;;;;;;;;;;4995792;28;101147;-72
2022/03/26 02:26:44;;;;;;;41.13;22.10;;;;;;;;;;4991335;28;101469;-72
2022/03/26 02:29:12;;;;;;;39.92;22.58;;;;;;;;;;4984197;28;100603;-73
2022/03/26 02:31:39;;;;;;;41.05;23.50;;;;;;;;;;4974875;28;100430;-73
2022/03/26 02:34:07;;;;;;;43.40;23.15;;;;;;;;;;4970623;28;100024;-73
2022/03/26 02:36:34;;;;;;;42.75;22.52;;;;;;;;;;4990252;28;100174;-73
2022/03/26 02:39:01;;;;;;;45.10;23.70;;;;;;;;;;4957172;28;100863;-72
2022/03/26 02:41:27;;;;;;;43.63;24.10;;;;;;;;;;4991651;28;100079;-72
2022/03/26 02:43:54;;;;;;;44.67;23.20;;;;;;;;;;4958113;28;100042;-72
2022/03/26 02:46:21;;;;;;;38.72;22.48;;;;;;;;;;4988440;28;100316;-73
2022/03/26 02:48:49;;;;;;;38.72;21.73;;;;;;;;;;4991205;28;100714;-73
2022/03/26 02:51:16;;;;;;;42.63;22.30;;;;;;;;;;4989133;28;100201;-71
2022/03/26 02:53:43;;;;;;;41.03;22.35;;;;;;;;;;5013318;28;100172;-72
2022/03/26 02:56:10;;;;;;;45.63;22.42;;;;;;;;;;5013538;28;101411;-71
2022/03/26 02:58:36;;;;;;;43.55;23.00;;;;;;;;;;5013860;28;102023;-72
2022/03/26 03:01:03;;;;;;;42.22;21.83;;;;;;;;;;5013475;28;100097;-71
2022/03/26 03:03:30;;;;;;;42.67;21.83;;;;;;;;;;5023903;28;100021;-70
2022/03/26 03:05:58;;;;;;;44.10;22.70;;;;;;;;;;5016360;28;100531;-71
2022/03/26 03:08:25;;;;;;;42.05;22.10;;;;;;;;;;4996317;28;101666;-70
2022/03/26 03:10:52;;;;;;;41.47;22.15;;;;;;;;;;5014705;28;100069;-71
2022/03/26 03:13:21;;;;;;;40.28;22.42;;;;;;;;;;4984287;28;100125;-72
2022/03/26 03:15:50;;;;;;;37.47;20.90;;;;;;;;;;5034450;28;100235;-72
2022/03/26 03:18:18;;;;;;;40.95;21.55;;;;;;;;;;5034007;28;104215;-72
2022/03/26 03:20:44;;;;;;;40.85;22.80;;;;;;;;;;4994731;28;100121;-72
2022/03/26 03:23:13;;;;;;;47.30;22.25;;;;;;;;;;5014527;28;100098;-71
2022/03/26 03:25:40;;;;;;;38.95;22.83;;;;;;;;;;5012763;28;100405;-71
2022/03/26 03:28:07;;;;;;;39.75;22.45;;;;;;;;;;4993493;28;100712;-71
2022/03/26 03:30:33;;;;;;;37.08;20.73;;;;;;;;;;4980282;28;100233;-72
2022/03/26 03:33:00;;;;;;;41.72;21.58;;;;;;;;;;5014410;28;100804;-72
2022/03/26 03:35:27;;;;;;;47.38;22.95;;;;;;;;;;4995159;28;100202;-74
2022/03/26 03:37:54;;;;;;;41.38;20.95;;;;;;;;;;5014116;28;102108;-72
2022/03/26 03:40:21;;;;;;;36.13;21.17;;;;;;;;;;5014210;28;100069;-73
2022/03/26 03:42:48;;;;;;;37.83;20.70;;;;;;;;;;4978641;28;100132;-72
2022/03/26 03:45:15;;;;;;;39.10;21.75;;;;;;;;;;4995282;28;100162;-72
2022/03/26 03:47:41;;;;;;;40.47;21.33;;;;;;;;;;5003715;28;100712;-72
2022/03/26 03:50:08;;;;;;;37.70;20.05;;;;;;;;;;5015961;28;100154;-72
2022/03/26 03:52:35;;;;;;;45.17;21.17;;;;;;;;;;5016056;28;100175;-72
2022/03/26 03:55:03;;;;;;;39.65;21.02;;;;;;;;;;4998676;28;100145;-72
2022/03/26 03:57:30;;;;;;;39.63;20.60;;;;;;;;;;5032824;28;101184;-72
2022/03/26 03:59:56;;;;;;;39.95;20.92;;;;;;;;;;5014474;28;101300;-72
2022/03/26 04:02:24;;;;;;;34.92;19.15;;;;;;;;;;4999346;28;100059;-72
2022/03/26 04:04:51;;;;;;;39.45;19.02;;;;;;;;;;5015283;28;100131;-73
2022/03/26 04:07:18;;;;;;;34.95;19.60;;;;;;;;;;4978880;28;100536;-73
2022/03/26 04:09:45;;;;;;;34.25;20.02;;;;;;;;;;4978805;28;100178;-72
2022/03/26 04:12:11;;;;;;;36.10;19.00;;;;;;;;;;4979193;28;100052;-72
2022/03/26 04:14:43;;;;;;;34.47;19.35;;;;;;;;;;4993608;28;100691;-72
2022/03/26 04:17:11;;;;;;;39.28;20.65;;;;;;;;;;5012819;28;101217;-72
2022/03/26 04:19:38;;;;;;;38.78;19.58;;;;;;;;;;4986485;28;101216;-72
2022/03/26 04:22:06;;;;;;;38.20;19.40;;;;;;;;;;4999022;28;100001;-72
2022/03/26 04:24:35;;;;;;;39.40;19.75;;;;;;;;;;5015310;28;100791;-72
2022/03/26 04:27:05;;;;;;;38.17;20.30;;;;;;;;;;4999188;28;103669;-72
2022/03/26 04:29:32;;;;;;;36.08;19.13;;;;;;;;;;5033259;28;100216;-72
2022/03/26 04:31:59;;;;;;;39.15;19.80;;;;;;;;;;5033548;28;100007;-72
2022/03/26 04:34:26;;;;;;;34.58;18.02;;;;;;;;;;4998093;28;100351;-72
2022/03/26 04:36:52;;;;;;;37.45;19.92;;;;;;;;;;5014870;28;101970;-72
2022/03/26 04:39:19;;;;;;;36.83;19.60;;;;;;;;;;4981555;28;100076;-72
2022/03/26 04:41:47;;;;;;;35.85;19.33;;;;;;;;;;5033469;28;99990;-73
2022/03/26 04:44:14;;;;;;;38.13;20.02;;;;;;;;;;4998122;28;100445;-73
2022/03/26 04:46:41;;;;;;;33.58;19.20;;;;;;;;;;5032580;28;100561;-72
2022/03/26 04:49:08;;;;;;;31.75;17.63;;;;;;;;;;5020738;28;101322;-73
2022/03/26 04:51:35;;;;;;;38.22;18.70;;;;;;;;;;4992167;28;100387;-74
2022/03/26 04:54:02;;;;;;;40.53;17.48;;;;;;;;;;4977490;28;103241;-73
2022/03/26 04:56:28;;;;;;;43.17;19.60;;;;;;;;;;4994772;28;100587;-72
2022/03/26 04:58:55;;;;;;;41.67;20.13;;;;;;;;;;5012668;28;100043;-73
2022/03/26 05:01:22;;;;;;;32.35;18.65;;;;;;;;;;4993952;28;100141;-72
2022/03/26 05:03:49;;;;;;;32.35;17.95;;;;;;;;;;4990948;28;100232;-72
2022/03/26 05:06:16;;;;;;;32.92;17.55;;;;;;;;;;4992557;28;100525;-72
2022/03/26 05:08:43;;;;;;;36.47;19.40;;;;;;;;;;4991185;28;100099;-74
2022/03/26 05:11:10;;;;;;;39.70;19.42;;;;;;;;;;4991314;28;100264;-73
2022/03/26 05:13:37;;;;;;;35.60;17.23;;;;;;;;;;4973884;28;103042;-72
2022/03/26 05:16:04;;;;;;;35.33;19.00;;;;;;;;;;4991279;28;101177;-73
2022/03/26 05:18:31;;;;;;;38.38;19.45;;;;;;;;;;4991411;28;100139;-73
2022/03/26 05:20:58;;;;;;;32.70;19.10;;;;;;;;;;4991562;28;100014;-73
2022/03/26 05:23:25;;;;;;;37.10;17.85;;;;;;;;;;4990675;28;100512;-72
2022/03/26 05:25:55;;;;;;;38.92;20.15;;;;;;;;;;4992202;28;100756;-73
2022/03/26 05:28:21;;;;;;;33.17;18.67;;;;;;;;;;4991422;28;100023;-72
2022/03/26 05:30:49;;;;;;;35.88;19.27;;;;;;;;;;4991351;28;99970;-72
2022/03/26 05:33:16;;;;;;;35.97;20.08;;;;;;;;;;4990450;28;100752;-72
2022/03/26 05:35:43;;;;;;;34.97;19.45;;;;;;;;;;4990552;28;100516;-72
2022/03/26 05:38:10;;;;;;;40.47;20.58;;;;;;;;;;4991364;28;100138;-72
2022/03/26 05:40:37;;;;;;;41.22;20.65;;;;;;;;;;4973772;28;100196;-72
2022/03/26 05:43:04;;;;;;;40.70;19.67;;;;;;;;;;4987435;28;100870;-72
2022/03/26 05:45:31;;;;;;;40.80;20.17;;;;;;;;;;4965744;28;101270;-72
2022/03/26 05:48:01;;;;;;;33.45;19.02;;;;;;;;;;4990786;28;100188;-71
2022/03/26 05:50:29;;;;;;;39.88;20.33;;;;;;;;;;4993711;28;100001;-73
2022/03/26 05:52:56;;;;;;;37.17;19.83;;;;;;;;;;4993213;28;100310;-72
2022/03/26 05:55:23;;;;;;;33.00;19.55;;;;;;;;;;4976679;28;100621;-73
2022/03/26 05:57:50;;;;;;;39.75;20.35;;;;;;;;;;4990596;28;101428;-73
2022/03/26 06:00:17;;;;;;;46.53;20.98;;;;;;;;;;4991258;28;100036;-71
2022/03/26 06:02:44;;;;;;;37.10;20.13;;;;;;;;;;4992580;28;100436;-72
2022/03/26 06:05:12;;;;;;;46.70;20.83;;;;;;;;;;4990592;28;104145;-74
2022/03/26 06:07:39;;;;;;;43.25;21.40;;;;;;;;;;4977684;28;100162;-72
2022/03/26 06:10:07;;;;;;;40.80;21.17;;;;;;;;;;5012034;28;99923;-73
2022/03/26 06:12:37;;;;;;;38.15;20.15;;;;;;;;;;4993966;28;100230;-73
2022/03/26 06:15:04;;;;;;;36.42;19.58;;;;;;;;;;4991028;28;103248;-72
2022/03/26 06:17:31;;;;;;;35.67;19.70;;;;;;;;;;4994248;28;100077;-72
2022/03/26 06:19:58;;;;;;;39.83;20.38;;;;;;;;;;5012027;28;99946;-71
2022/03/26 06:22:25;;;;;;;42.17;21.13;;;;;;;;;;4991746;28;101579;-72
2022/03/26 06:24:53;;;;;;;40.35;21.27;;;;;;;;;;5012012;28;101681;-73
2022/03/26 06:27:21;;;;;;;37.45;21.77;;;;;;;;;;5013154;28;100032;-73
2022/03/26 06:29:48;;;;;;;44.58;21.42;;;;;;;;;;4981666;28;100065;-73
2022/03/26 06:32:15;;;;;;;39.72;20.70;;;;;;;;;;4994434;28;100608;-73
2022/03/26 06:34:42;;;;;;;39.20;22.27;;;;;;;;;;4980214;28;100778;-73
2022/03/26 06:37:09;;;;;;;37.63;21.60;;;;;;;;;;5014660;28;100546;-73
2022/03/26 06:39:36;;;;;;;35.67;20.70;;;;;;;;;;5014620;28;100046;-74
2022/03/26 06:42:04;;;;;;;38.30;21.00;;;;;;;;;;5026566;28;101339;-73
2022/03/26 06:44:30;;;;;;;40.10;21.25;;;;;;;;;;5017101;28;100619;-73
2022/03/26 06:46:57;;;;;;;33.95;20.13;;;;;;;;;;5035381;28;100124;-72
2022/03/26 06:49:27;;;;;;;37.97;19.15;;;;;;;;;;5034092;28;100166;-73
2022/03/26 06:51:54;;;;;;;36.83;20.83;;;;;;;;;;5034794;28;100265;-73
2022/03/26 06:54:20;;;;;;;41.20;20.52;;;;;;;;;;5035025;28;100658;-73
2022/03/26 06:56:47;;;;;;;35.25;20.65;;;;;;;;;;5034801;28;100217;-73
2022/03/26 06:59:17;;;;;;;35.50;19.40;;;;;;;;;;5017636;28;100038;-73
2022/03/26 07:01:45;;;;;;;38.63;21.42;;;;;;;;;;5016271;28;100411;-73
2022/03/26 07:04:16;;;;;;;37.03;21.55;;;;;;;;;;5000821;28;100718;-73
2022/03/26 07:06:43;;;;;;;37.50;20.77;;;;;;;;;;5017157;28;99850;-73
2022/03/26 07:09:10;;;;;;;40.83;21.52;;;;;;;;;;5017195;28;100135;-72
2022/03/26 07:11:37;;;;;;;49.53;22.58;;;;;;;;;;5016301;28;100343;-73
2022/03/26 07:14:04;;;;;;;42.42;21.10;;;;;;;;;;5016139;28;101728;-72
2022/03/26 07:16:31;;;;;;;40.70;22.08;;;;;;;;;;5000348;28;100161;-72
2022/03/26 07:18:58;;;;;;;37.70;20.95;;;;;;;;;;5017039;28;99971;-73
2022/03/26 07:21:25;;;;;;;36.90;21.08;;;;;;;;;;5015424;28;101987;-73
2022/03/26 07:23:51;;;;;;;37.72;20.55;;;;;;;;;;5034104;28;101271;-73
2022/03/26 07:26:18;;;;;;;43.55;22.05;;;;;;;;;;5033470;28;100053;-74
2022/03/26 07:28:45;;;;;;;41.78;21.60;;;;;;;;;;5034325;28;100757;-72
2022/03/26 07:31:12;;;;;;;39.10;21.75;;;;;;;;;;5032497;28;100273;-72
2022/03/26 07:33:39;;;;;;;41.70;21.33;;;;;;;;;;4997428;28;101795;-73
2022/03/26 07:36:06;;;;;;;45.78;22.65;;;;;;;;;;5033641;27;100180;-73
2022/03/26 07:38:32;;;;;;;41.03;22.27;;;;;;;;;;5034293;28;100101;-73
2022/03/26 07:41:00;;;;;;;42.00;21.70;;;;;;;;;;5015201;28;101321;-73
2022/03/26 07:43:27;;;;;;;43.53;22.85;;;;;;;;;;5016200;28;101317;-73
2022/03/26 07:45:54;;;;;;;41.67;22.70;;;;;;;;;;5003980;28;101361;-73
2022/03/26 07:48:21;;;;;;;40.40;22.38;;;;;;;;;;5034209;28;100061;-72
2022/03/26 07:50:49;;;;;;;40.67;21.77;;;;;;;;;;5015166;28;100290;-72
2022/03/26 07:53:16;;;;;;;40.13;22.00;;;;;;;;;;5033399;28;100732;-72
2022/03/26 07:55:47;;;;;;;36.47;20.85;;;;;;;;;;4983866;28;100073;-72
2022/03/26 07:58:14;;;;;;;37.13;20.10;;;;;;;;;;5033890;28;100030;-72
2022/03/26 08:00:41;;;;;;;31.98;18.40;;;;;;;;;;5033418;28;100250;-73
2022/03/26 08:03:10;;;;;;;30.63;16.90;;;;;;;;;;5030417;28;100719;-72
2022/03/26 08:05:38;;;;;;;31.35;17.17;;;;;;;;;;5013590;28;100051;-72
2022/03/26 08:08:05;;;;;;;30.13;16.55;;;;;;;;;;4979222;28;100148;-72
2022/03/26 08:10:32;;;;;;;32.78;16.73;;;;;;;;;;5009095;28;100604;-72
2022/03/26 08:12:59;;;;;;;30.10;17.25;;;;;;;;;;4998946;28;100534;-73
2022/03/26 08:15:26;;;;;;;32.45;14.65;;;;;;;;;;5015019;28;100187;-72
2022/03/26 08:17:52;;;;;;;23.08;13.73;;;;;;;;;;5033587;28;100109;-72
2022/03/26 08:20:20;;;;;;;23.10;13.50;;;;;;;;;;5033215;28;100310;-72
2022/03/26 08:22:46;;;;;;;25.63;13.43;;;;;;;;;;5032559;28;101875;-73
2022/03/26 08:26:19;;;;;;;25.48;14.60;;;;;;;;;;5033282;28;100103;-73
2022/03/26 08:28:05;;;;;;;25.45;14.20;;;;;;;;;;5018645;28;100211;-73
2022/03/26 08:30:32;;;;;;;26.33;14.60;;;;;;;;;;5014957;28;100894;-73
2022/03/26 08:33:01;;;;;;;26.38;14.05;;;;;;;;;;4998194;28;103991;-73
2022/03/26 08:35:34;;;;;;;27.23;13.50;;;;;;;;;;4992502;28;100221;-73
2022/03/26 08:38:01;;;;;;;23.38;12.00;;;;;;;;;;4963053;28;100150;-73
2022/03/26 08:40:28;;;;;;;21.92;11.90;;;;;;;;;;5012350;28;100300;-73
2022/03/26 08:42:56;;;;;;;21.80;12.25;;;;;;;;;;4994778;28;100665;-73
2022/03/26 08:45:23;;;;;;;23.10;11.63;;;;;;;;;;4993996;28;100082;-73
2022/03/26 08:47:49;;;;;;;21.67;11.55;;;;;;;;;;4994364;28;100020;-73
2022/03/26 08:50:16;;;;;;;20.83;11.65;;;;;;;;;;5012339;28;100470;-74
2022/03/26 08:52:43;;;;;;;23.75;12.55;;;;;;;;;;4993905;28;101198;-73
2022/03/26 08:55:10;;;;;;;19.92;11.85;;;;;;;;;;4994154;28;100167;-73
2022/03/26 08:57:37;;;;;;;25.90;12.15;;;;;;;;;;4978904;28;100096;-73
2022/03/26 09:00:04;;;;;;;20.48;11.95;;;;;;;;;;4992944;28;100925;-73
2022/03/26 09:02:31;;;;;;;22.98;11.73;;;;;;;;;;5011747;28;101729;-73
2022/03/26 09:04:58;;;;;;;25.38;12.32;;;;;;;;;;4990992;28;100179;-73
2022/03/26 09:07:25;;;;;;;22.23;11.65;;;;;;;;;;4992865;28;100212;-73
2022/03/26 09:09:52;;;;;;;22.55;11.60;;;;;;;;;;4993556;28;103186;-74
2022/03/26 09:12:19;;;;;;;22.17;11.65;;;;;;;;;;5011431;28;101385;-73
2022/03/26 09:14:46;;;;;;;23.33;11.75;;;;;;;;;;4991610;28;100220;-72
2022/03/26 09:17:13;;;;;;;21.85;12.00;;;;;;;;;;5012285;28;100050;-73
2022/03/26 09:19:40;;;;;;;21.02;12.30;;;;;;;;;;5014816;28;101477;-72
2022/03/26 09:22:07;;;;;;;21.15;12.93;;;;;;;;;;5018302;28;101356;-73
2022/03/26 09:24:34;;;;;;;26.25;13.35;;;;;;;;;;4994173;28;100223;-73
2022/03/26 09:27:04;;;;;;;22.17;13.20;;;;;;;;;;5010924;28;100146;-72
2022/03/26 09:29:31;;;;;;;22.73;13.40;;;;;;;;;;4981390;28;104058;-73
2022/03/26 09:31:58;;;;;;;28.15;13.00;;;;;;;;;;4991288;28;100863;-73
2022/03/26 09:34:25;;;;;;;21.40;12.40;;;;;;;;;;4976267;28;100148;-73
2022/03/26 09:36:53;;;;;;;22.13;12.57;;;;;;;;;;5018364;28;100205;-72
2022/03/26 09:39:20;;;;;;;22.05;12.98;;;;;;;;;;4989022;28;100634;-72
2022/03/26 09:41:47;;;;;;;28.15;12.30;;;;;;;;;;5010085;28;101912;-72
2022/03/26 09:44:14;;;;;;;19.58;11.93;;;;;;;;;;4996793;28;100057;-73
2022/03/26 09:46:41;;;;;;;18.73;12.48;;;;;;;;;;5013708;28;100164;-72
2022/03/26 09:49:10;;;;;;;22.75;12.38;;;;;;;;;;5008776;28;101069;-72
2022/03/26 09:51:37;;;;;;;24.60;12.70;;;;;;;;;;4992058;28;101144;-72
2022/03/26 09:54:03;;;;;;;25.67;12.48;;;;;;;;;;4993001;28;100125;-73
2022/03/26 09:56:30;;;;;;;19.52;12.38;;;;;;;;;;4973951;28;100083;-73
2022/03/26 09:58:57;;;;;;;17.23;11.35;;;;;;;;;;5010045;28;101551;-72
2022/03/26 10:01:25;;;;;;;23.23;12.48;;;;;;;;;;5011793;28;100622;-72
2022/03/26 10:04:11;;;;;;;21.23;11.98;;;;;;;;;;5012216;28;100225;-73
2022/03/26 10:06:50;;;;;;;22.45;11.98;;;;;;;;;;5010681;28;100318;-74
2022/03/26 10:09:36;;;;;;;23.40;11.63;;;;;;;;;;5010275;28;100301;-73
2022/03/26 10:12:10;;;;;;;28.38;11.52;;;;;;;;;;5012164;28;101167;-72
2022/03/26 10:14:38;;;;;;;22.92;12.93;;;;;;;;;;4992730;28;101585;-73
2022/03/26 10:17:24;;;;;;;22.13;12.75;;;;;;;;;;4998322;28;100154;-72
2022/03/26 10:19:55;;;;;;;24.65;12.50;;;;;;;;;;4995670;28;100237;-73
2022/03/26 10:22:28;;;;;;;39.17;13.77;;;;;;;;;;5012792;28;100531;-72
2022/03/26 10:24:57;;;;;;;20.73;12.20;;;;;;;;;;5012720;28;100110;-73
2022/03/26 10:27:24;;;;;;;22.20;13.50;;;;;;;;;;5012889;28;101635;-72
2022/03/26 10:29:56;;;;;;;23.25;13.88;;;;;;;;;;5011821;28;101609;-73
2022/03/26 10:32:39;;;;;;;23.55;12.45;;;;;;;;;;5005105;28;101135;-72
2022/03/26 10:35:14;;;;;;;23.15;12.80;;;;;;;;;;5009888;28;100109;-72
2022/03/26 10:37:59;;;;;;;25.23;13.00;;;;;;;;;;4992240;28;102122;-73
2022/03/26 10:40:37;;;;;;;;;;;;;;;;;;4969207;28;100848;-72
2022/03/26 10:43:08;;;;;;;27.52;10.77;;;;;;;;;;5030404;28;100635;-72
2022/03/26 10:45:37;;;;;;;19.17;11.93;;;;;;;;;;4995089;28;100053;-72
2022/03/26 10:48:11;;;;;;;21.23;11.45;;;;;;;;;;4996319;28;100100;-72
2022/03/26 10:50:38;;;;;;;18.88;12.13;;;;;;;;;;5011863;28;100743;-72
2022/03/26 10:53:07;;;;;;;16.70;11.20;;;;;;;;;;5029207;28;100622;-72
2022/03/26 10:55:35;;;;;;;22.45;12.00;;;;;;;;;;4997134;28;100111;-73
2022/03/26 10:58:04;;;;;;;19.15;11.95;;;;;;;;;;5030695;28;100066;-73
2022/03/26 11:00:31;;;;;;;20.60;12.40;;;;;;;;;;5008674;28;101502;-73
2022/03/26 11:02:58;;;;;;;19.00;11.73;;;;;;;;;;5004105;28;100746;-73
2022/03/26 11:05:25;;;;;;;17.25;11.50;;;;;;;;;;4974292;28;100472;-72
2022/03/26 11:07:53;;;;;;;18.45;11.88;;;;;;;;;;4956204;28;100147;-72
2022/03/26 11:10:20;;;;;;;20.27;12.13;;;;;;;;;;4955691;28;100382;-72
2022/03/26 11:12:47;;;;;;;21.20;11.52;;;;;;;;;;4976260;28;100704;-72
2022/03/26 11:15:26;;;;;;;23.40;12.55;;;;;;;;;;4944014;28;100244;-72
2022/03/26 11:18:24;;;;;;;19.55;11.65;;;;;;;;;;4955398;28;100210;-72
2022/03/26 11:21:16;;;;;;;20.05;11.88;;;;;;;;;;4993678;28;100319;-73
2022/03/26 11:23:52;;;;;;;24.83;12.98;;;;;;;;;;4976092;28;101332;-72
2022/03/26 11:26:49;;;;;;;19.98;11.93;;;;;;;;;;4976638;28;100167;-72
2022/03/26 11:29:52;;;;;;;18.63;11.27;;;;;;;;;;4975428;28;100351;-72
2022/03/26 11:32:26;;;;;;;21.13;10.68;;;;;;;;;;4877855;28;100267;-75
2022/03/26 11:35:00;;;;;;;;;;;;;;;;;;4963177;28;101144;-72
2022/03/26 11:37:27;;;;;;;20.52;10.30;;;;;;;;;;4993762;28;100108;-72
2022/03/26 11:39:57;;;;;;;17.10;10.73;;;;;;;;;;4975856;28;100519;-72
2022/03/26 11:42:36;;;;;;;19.98;11.10;;;;;;;;;;4993818;28;100271;-72
2022/03/26 11:51:21;;;;;;;22.63;11.07;;;;;;;;;;4994035;28;100151;-72
2022/03/26 11:53:58;;;;;;;29.48;11.30;;;;;;;;;;4977111;28;100318;-72
2022/03/26 11:56:31;;;;;;;16.40;9.88;;;;;;;;;;4960946;28;100652;-72
2022/03/26 11:59:03;;;;;;;21.67;10.40;;;;;;;;;;4993303;28;100246;-72
2022/03/26 12:01:43;;;;;;;21.58;9.88;;;;;;;;;;4994509;28;100281;-72
2022/03/26 12:04:12;;;;;;;19.38;10.77;;;;;;;;;;4954487;28;102815;-71
2022/03/26 12:07:13;;;;;;;20.73;10.98;;;;;;;;;;5009883;28;100159;-72
2022/03/26 12:09:40;;;;;;;22.20;10.20;;;;;;;;;;4976135;28;100282;-72
2022/03/26 12:12:16;;;;;;;21.85;10.18;;;;;;;;;;4993288;28;100068;-72
2022/03/26 12:15:01;;;;;;;19.77;9.90;;;;;;;;;;4993064;28;100685;-72
2022/03/26 12:17:44;;;;;;;18.92;9.82;;;;;;;;;;4992849;28;101140;-72
2022/03/26 12:20:46;;;;;;;22.17;9.45;;;;;;;;;;4998427;28;100214;-72
2022/03/26 12:23:14;;;;;;;14.93;8.98;;;;;;;;;;5006060;28;100251;-71
2022/03/26 12:25:51;;;;;;;20.50;10.15;;;;;;;;;;5011406;28;101349;-71
2022/03/26 12:28:25;;;;;;;19.38;11.10;;;;;;;;;;5011281;28;100541;-72
2022/03/26 12:30:57;;;;;;;16.15;9.88;;;;;;;;;;5006149;28;100128;-72
2022/03/26 12:33:24;;;;;;;19.13;10.52;;;;;;;;;;5010695;28;100115;-72
2022/03/26 12:35:55;;;;;;;18.50;10.75;;;;;;;;;;4994848;28;100174;-72
2022/03/26 12:38:26;;;;;;;14.98;9.77;;;;;;;;;;5002895;28;102164;-72
2022/03/26 12:40:54;;;;;;;24.02;11.27;;;;;;;;;;4995722;28;100143;-73
2022/03/26 12:43:21;;;;;;;19.30;10.38;;;;;;;;;;5010328;28;100064;-73
2022/03/26 12:45:49;;;;;;;17.45;10.05;;;;;;;;;;4973459;28;100885;-72
2022/03/26 12:48:16;;;;;;;19.83;9.13;;;;;;;;;;4959050;28;100590;-72
2022/03/26 12:50:44;;;;;;;16.45;9.13;;;;;;;;;;4957865;28;100122;-74
2022/03/26 12:53:12;;;;;;;18.50;9.45;;;;;;;;;;4943895;28;100077;-73
2022/03/26 12:55:40;;;;;;;16.17;9.90;;;;;;;;;;5010736;28;100168;-72
2022/03/26 13:01:04;;;;;;;17.40;9.35;;;;;;;;;;5006100;28;100012;-73
2022/03/26 13:03:31;;;;;;;18.33;9.20;;;;;;;;;;5001461;28;100193;-73
2022/03/26 13:05:58;;;;;;;22.73;9.20;;;;;;;;;;4961229;28;100419;-73
2022/03/26 13:08:26;;;;;;;18.33;9.88;;;;;;;;;;4993983;28;100790;-73
2022/03/26 13:10:54;;;;;;;16.80;10.18;;;;;;;;;;5012340;28;100034;-73
2022/03/26 13:13:21;;;;;;;18.65;9.35;;;;;;;;;;4993973;28;100092;-73
2022/03/26 13:16:04;;;;;;;15.45;9.32;;;;;;;;;;5011712;28;100319;-72
2022/03/26 13:18:40;;;;;;;16.63;9.30;;;;;;;;;;4977736;28;100538;-73
2022/03/26 13:21:06;;;;;;;14.45;8.48;;;;;;;;;;5012701;28;103427;-73
2022/03/26 13:23:33;;;;;;;19.98;9.40;;;;;;;;;;4991731;28;100104;-73
2022/03/26 13:26:03;;;;;;;14.40;9.07;;;;;;;;;;4993876;28;100363;-72
2022/03/26 13:28:34;;;;;;;16.52;8.57;;;;;;;;;;5003501;28;100537;-73
2022/03/26 13:31:16;;;;;;;27.23;8.52;;;;;;;;;;5019587;28;100145;-73
2022/03/26 13:33:43;;;;;;;13.95;8.65;;;;;;;;;;5005864;28;100263;-72
2022/03/26 13:36:10;;;;;;;19.83;8.35;;;;;;;;;;5031430;28;100269;-73
2022/03/26 13:38:39;;;;;;;17.30;8.15;;;;;;;;;;4997663;28;100504;-73
2022/03/26 13:41:19;;;;;;;20.52;8.30;;;;;;;;;;4964433;28;100136;-72
2022/03/26 13:43:47;;;;;;;13.50;7.95;;;;;;;;;;5011736;28;100349;-73
2022/03/26 13:46:14;;;;;;;13.30;7.35;;;;;;;;;;5011267;28;100181;-74
2022/03/26 13:48:50;;;;;;;15.10;7.90;;;;;;;;;;4991646;28;101877;-73
2022/03/26 13:51:30;;;;;;;14.10;7.72;;;;;;;;;;5014537;28;100098;-73
2022/03/26 13:54:05;;;;;;;16.67;7.60;;;;;;;;;;4998704;28;100061;-73
2022/03/26 13:56:33;;;;;;;14.00;7.68;;;;;;;;;;5031687;28;100242;-73
2022/03/26 13:59:02;;;;;;;13.70;7.25;;;;;;;;;;4997599;28;100877;-73
2022/03/26 14:01:28;;;;;;;15.00;7.60;;;;;;;;;;5014460;28;100129;-73
2022/03/26 14:03:57;;;;;;;14.00;8.52;;;;;;;;;;5014424;28;100242;-73
2022/03/26 14:06:24;;;;;;;18.77;9.77;;;;;;;;;;4973073;28;100193;-73
2022/03/26 14:08:51;;;;;;;19.02;9.27;;;;;;;;;;5006918;28;100682;-73
2022/03/26 14:11:18;;;;;;;16.77;8.73;;;;;;;;;;4960939;28;100197;-73
2022/03/26 14:13:46;;;;;;;17.77;9.57;;;;;;;;;;4988276;28;100122;-73
2022/03/26 14:16:13;;;;;;;17.33;9.48;;;;;;;;;;5013881;28;100773;-73
2022/03/26 14:18:40;;;;;;;15.80;8.90;;;;;;;;;;4997291;28;100652;-73
2022/03/26 14:21:07;;;;;;;15.38;8.18;;;;;;;;;;5031874;28;100025;-73
2022/03/26 14:23:34;;;;;;;15.52;9.40;;;;;;;;;;5014013;28;100247;-73
2022/03/26 14:26:01;;;;;;;20.92;8.68;;;;;;;;;;4992702;28;101485;-73